sensor_id;sensor_type;location;lat;lon;timestamp;P1;durP1;ratioP1;P2;durP2;ratioP2
23046;SDS011;11691;51.462;6.902;2023-04-16T00:00:18;18.70;;;9.53;;
23046;SDS011;11691;51.462;6.902;2023-04-16T00:02:44;20.30;;;8.50;;
23046;SDS011;11691;51.462;6.902;2023-04-16T00:05:10;15.50;;;8.73;;
23046;SDS011;11691;51.462;6.902;2023-04-16T00:07:36;18.33;;;9.10;;
23046;SDS011;11691;51.462;6.902;2023-04-16T00:10:03;20.40;;;9.40;;
23046;SDS011;11691;51.462;6.902;2023-04-16T00:12:29;17.57;;;9.37;;
23046;SDS011;11691;51.462;6.902;2023-04-16T00:14:55;20.17;;;9.27;;
23046;SDS011;11691;51.462;6.902;2023-04-16T00:17:21;19.60;;;9.17;;
23046;SDS011;11691;51.462;6.902;2023-04-16T00:19:47;17.80;;;10.40;;
23046;SDS011;11691;51.462;6.902;2023-04-16T00:22:13;14.07;;;8.87;;
23046;SDS011;11691;51.462;6.902;2023-04-16T00:24:39;19.57;;;9.67;;
23046;SDS011;11691;51.462;6.902;2023-04-16T00:27:06;18.73;;;9.47;;
23046;SDS011;11691;51.462;6.902;2023-04-16T00:29:31;20.10;;;9.90;;
23046;SDS011;11691;51.462;6.902;2023-04-16T00:31:58;15.53;;;9.13;;
23046;SDS011;11691;51.462;6.902;2023-04-16T00:34:25;17.13;;;9.57;;
23046;SDS011;11691;51.462;6.902;2023-04-16T00:36:51;18.93;;;9.27;;
23046;SDS011;11691;51.462;6.902;2023-04-16T00:39:17;22.43;;;9.40;;
23046;SDS011;11691;51.462;6.902;2023-04-16T00:41:43;17.13;;;9.27;;
23046;SDS011;11691;51.462;6.902;2023-04-16T00:44:09;20.10;;;9.73;;
23046;SDS011;11691;51.462;6.902;2023-04-16T00:46:35;18.00;;;9.07;;
23046;SDS011;11691;51.462;6.902;2023-04-16T00:49:01;19.10;;;9.53;;
23046;SDS011;11691;51.462;6.902;2023-04-16T00:51:28;21.63;;;9.37;;
23046;SDS011;11691;51.462;6.902;2023-04-16T00:53:55;13.17;;;8.50;;
23046;SDS011;11691;51.462;6.902;2023-04-16T00:56:21;16.00;;;9.43;;
23046;SDS011;11691;51.462;6.902;2023-04-16T00:58:49;16.20;;;8.80;;
23046;SDS011;11691;51.462;6.902;2023-04-16T01:01:15;18.43;;;9.47;;
23046;SDS011;11691;51.462;6.902;2023-04-16T01:03:44;18.83;;;9.80;;
23046;SDS011;11691;51.462;6.902;2023-04-16T01:06:11;20.17;;;10.43;;
23046;SDS011;11691;51.462;6.902;2023-04-16T01:08:37;20.77;;;9.80;;
23046;SDS011;11691;51.462;6.902;2023-04-16T01:11:03;18.07;;;9.60;;
23046;SDS011;11691;51.462;6.902;2023-04-16T01:13:30;15.80;;;8.73;;
23046;SDS011;11691;51.462;6.902;2023-04-16T01:15:56;16.67;;;9.13;;
23046;SDS011;11691;51.462;6.902;2023-04-16T01:18:22;17.10;;;10.07;;
23046;SDS011;11691;51.462;6.902;2023-04-16T01:20:48;22.03;;;10.60;;
23046;SDS011;11691;51.462;6.902;2023-04-16T01:23:15;17.37;;;9.57;;
23046;SDS011;11691;51.462;6.902;2023-04-16T01:25:42;20.93;;;10.17;;
23046;SDS011;11691;51.462;6.902;2023-04-16T01:28:08;17.80;;;9.83;;
23046;SDS011;11691;51.462;6.902;2023-04-16T01:30:34;22.13;;;9.97;;
23046;SDS011;11691;51.462;6.902;2023-04-16T01:33:00;23.00;;;10.57;;
23046;SDS011;11691;51.462;6.902;2023-04-16T01:35:26;20.00;;;10.53;;
23046;SDS011;11691;51.462;6.902;2023-04-16T01:37:52;22.83;;;10.33;;
23046;SDS011;11691;51.462;6.902;2023-04-16T01:40:18;21.60;;;10.40;;
23046;SDS011;11691;51.462;6.902;2023-04-16T01:42:44;23.87;;;10.13;;
23046;SDS011;11691;51.462;6.902;2023-04-16T01:45:10;21.70;;;10.20;;
23046;SDS011;11691;51.462;6.902;2023-04-16T01:47:36;23.77;;;10.70;;
23046;SDS011;11691;51.462;6.902;2023-04-16T01:50:02;27.77;;;10.93;;
23046;SDS011;11691;51.462;6.902;2023-04-16T01:52:29;26.00;;;11.10;;
23046;SDS011;11691;51.462;6.902;2023-04-16T01:54:55;23.58;;;11.32;;
23046;SDS011;11691;51.462;6.902;2023-04-16T01:57:20;20.43;;;10.23;;
23046;SDS011;11691;51.462;6.902;2023-04-16T01:59:46;21.20;;;11.50;;
23046;SDS011;11691;51.462;6.902;2023-04-16T02:02:13;25.10;;;11.77;;
23046;SDS011;11691;51.462;6.902;2023-04-16T02:04:40;24.57;;;11.43;;
23046;SDS011;11691;51.462;6.902;2023-04-16T02:07:07;24.20;;;11.50;;
23046;SDS011;11691;51.462;6.902;2023-04-16T02:09:36;23.30;;;11.57;;
23046;SDS011;11691;51.462;6.902;2023-04-16T02:12:02;25.80;;;11.80;;
23046;SDS011;11691;51.462;6.902;2023-04-16T02:14:29;24.70;;;12.10;;
23046;SDS011;11691;51.462;6.902;2023-04-16T02:16:55;29.80;;;13.47;;
23046;SDS011;11691;51.462;6.902;2023-04-16T02:19:21;24.10;;;11.60;;
23046;SDS011;11691;51.462;6.902;2023-04-16T02:21:47;29.37;;;12.57;;
23046;SDS011;11691;51.462;6.902;2023-04-16T02:24:13;25.10;;;12.63;;
23046;SDS011;11691;51.462;6.902;2023-04-16T02:26:39;21.30;;;12.30;;
23046;SDS011;11691;51.462;6.902;2023-04-16T02:29:05;24.57;;;12.27;;
23046;SDS011;11691;51.462;6.902;2023-04-16T02:31:31;25.90;;;12.80;;
23046;SDS011;11691;51.462;6.902;2023-04-16T02:33:57;22.83;;;12.87;;
23046;SDS011;11691;51.462;6.902;2023-04-16T02:36:23;32.90;;;13.97;;
23046;SDS011;11691;51.462;6.902;2023-04-16T02:38:49;26.37;;;12.97;;
23046;SDS011;11691;51.462;6.902;2023-04-16T02:41:15;26.30;;;13.10;;
23046;SDS011;11691;51.462;6.902;2023-04-16T02:43:41;26.50;;;12.87;;
23046;SDS011;11691;51.462;6.902;2023-04-16T02:46:08;26.13;;;12.77;;
23046;SDS011;11691;51.462;6.902;2023-04-16T02:48:34;27.60;;;13.23;;
23046;SDS011;11691;51.462;6.902;2023-04-16T02:51:00;22.00;;;14.00;;
23046;SDS011;11691;51.462;6.902;2023-04-16T02:53:26;34.83;;;14.27;;
23046;SDS011;11691;51.462;6.902;2023-04-16T02:55:52;24.63;;;13.47;;
23046;SDS011;11691;51.462;6.902;2023-04-16T02:58:23;24.57;;;12.87;;
23046;SDS011;11691;51.462;6.902;2023-04-16T03:00:50;24.37;;;14.03;;
23046;SDS011;11691;51.462;6.902;2023-04-16T03:03:16;25.03;;;13.87;;
23046;SDS011;11691;51.462;6.902;2023-04-16T03:05:42;23.23;;;13.13;;
23046;SDS011;11691;51.462;6.902;2023-04-16T03:08:08;25.33;;;13.53;;
23046;SDS011;11691;51.462;6.902;2023-04-16T03:10:34;24.23;;;13.23;;
23046;SDS011;11691;51.462;6.902;2023-04-16T03:13:00;25.00;;;13.47;;
23046;SDS011;11691;51.462;6.902;2023-04-16T03:15:27;33.33;;;14.13;;
23046;SDS011;11691;51.462;6.902;2023-04-16T03:17:52;22.87;;;13.30;;
23046;SDS011;11691;51.462;6.902;2023-04-16T03:20:18;25.47;;;13.47;;
23046;SDS011;11691;51.462;6.902;2023-04-16T03:22:45;35.60;;;15.47;;
23046;SDS011;11691;51.462;6.902;2023-04-16T03:25:11;27.37;;;15.60;;
23046;SDS011;11691;51.462;6.902;2023-04-16T03:27:37;30.60;;;14.90;;
23046;SDS011;11691;51.462;6.902;2023-04-16T03:30:04;27.73;;;14.13;;
23046;SDS011;11691;51.462;6.902;2023-04-16T03:32:31;29.60;;;14.17;;
23046;SDS011;11691;51.462;6.902;2023-04-16T03:34:57;29.87;;;14.60;;
23046;SDS011;11691;51.462;6.902;2023-04-16T03:37:23;28.57;;;14.70;;
23046;SDS011;11691;51.462;6.902;2023-04-16T03:39:49;29.53;;;14.67;;
23046;SDS011;11691;51.462;6.902;2023-04-16T03:42:15;30.77;;;15.67;;
23046;SDS011;11691;51.462;6.902;2023-04-16T03:44:41;33.90;;;15.43;;
23046;SDS011;11691;51.462;6.902;2023-04-16T03:47:07;28.63;;;14.73;;
23046;SDS011;11691;51.462;6.902;2023-04-16T03:49:33;31.00;;;15.37;;
23046;SDS011;11691;51.462;6.902;2023-04-16T03:51:59;29.87;;;16.07;;
23046;SDS011;11691;51.462;6.902;2023-04-16T03:54:25;32.17;;;16.00;;
23046;SDS011;11691;51.462;6.902;2023-04-16T03:56:51;32.90;;;15.38;;
23046;SDS011;11691;51.462;6.902;2023-04-16T03:59:17;32.93;;;15.47;;
23046;SDS011;11691;51.462;6.902;2023-04-16T04:01:43;27.87;;;14.67;;
23046;SDS011;11691;51.462;6.902;2023-04-16T04:04:09;33.60;;;16.40;;
23046;SDS011;11691;51.462;6.902;2023-04-16T04:06:35;39.80;;;16.33;;
23046;SDS011;11691;51.462;6.902;2023-04-16T04:09:01;30.77;;;15.97;;
23046;SDS011;11691;51.462;6.902;2023-04-16T04:11:27;31.70;;;16.77;;
23046;SDS011;11691;51.462;6.902;2023-04-16T04:13:53;33.10;;;16.30;;
23046;SDS011;11691;51.462;6.902;2023-04-16T04:16:19;39.37;;;16.30;;
23046;SDS011;11691;51.462;6.902;2023-04-16T04:18:45;38.45;;;17.45;;
23046;SDS011;11691;51.462;6.902;2023-04-16T04:21:11;33.13;;;17.00;;
23046;SDS011;11691;51.462;6.902;2023-04-16T04:23:38;31.63;;;16.67;;
23046;SDS011;11691;51.462;6.902;2023-04-16T04:26:05;38.17;;;17.53;;
23046;SDS011;11691;51.462;6.902;2023-04-16T04:28:31;34.57;;;17.83;;
23046;SDS011;11691;51.462;6.902;2023-04-16T04:30:58;36.90;;;17.80;;
23046;SDS011;11691;51.462;6.902;2023-04-16T04:33:24;40.77;;;19.90;;
23046;SDS011;11691;51.462;6.902;2023-04-16T04:35:50;34.93;;;17.67;;
23046;SDS011;11691;51.462;6.902;2023-04-16T04:38:16;41.47;;;19.87;;
23046;SDS011;11691;51.462;6.902;2023-04-16T04:40:44;43.27;;;20.23;;
23046;SDS011;11691;51.462;6.902;2023-04-16T04:43:10;41.27;;;20.37;;
23046;SDS011;11691;51.462;6.902;2023-04-16T04:45:36;42.60;;;20.07;;
23046;SDS011;11691;51.462;6.902;2023-04-16T04:48:02;42.67;;;19.03;;
23046;SDS011;11691;51.462;6.902;2023-04-16T04:50:29;39.05;;;19.58;;
23046;SDS011;11691;51.462;6.902;2023-04-16T04:52:55;39.60;;;20.43;;
23046;SDS011;11691;51.462;6.902;2023-04-16T04:55:21;41.80;;;20.70;;
23046;SDS011;11691;51.462;6.902;2023-04-16T04:57:47;38.50;;;20.10;;
23046;SDS011;11691;51.462;6.902;2023-04-16T05:00:13;45.00;;;19.88;;
23046;SDS011;11691;51.462;6.902;2023-04-16T05:02:39;40.07;;;19.37;;
23046;SDS011;11691;51.462;6.902;2023-04-16T05:05:05;36.77;;;19.00;;
23046;SDS011;11691;51.462;6.902;2023-04-16T05:07:31;41.45;;;18.85;;
23046;SDS011;11691;51.462;6.902;2023-04-16T05:09:57;39.55;;;19.63;;
23046;SDS011;11691;51.462;6.902;2023-04-16T05:12:23;44.23;;;21.37;;
23046;SDS011;11691;51.462;6.902;2023-04-16T05:14:49;40.47;;;19.17;;
23046;SDS011;11691;51.462;6.902;2023-04-16T05:17:15;42.53;;;20.57;;
23046;SDS011;11691;51.462;6.902;2023-04-16T05:19:41;42.53;;;19.90;;
23046;SDS011;11691;51.462;6.902;2023-04-16T05:22:07;42.57;;;21.07;;
23046;SDS011;11691;51.462;6.902;2023-04-16T05:24:33;45.30;;;21.57;;
23046;SDS011;11691;51.462;6.902;2023-04-16T05:26:59;50.00;;;20.80;;
23046;SDS011;11691;51.462;6.902;2023-04-16T05:29:25;37.20;;;19.20;;
23046;SDS011;11691;51.462;6.902;2023-04-16T05:31:52;42.80;;;20.80;;
23046;SDS011;11691;51.462;6.902;2023-04-16T05:34:17;35.45;;;18.33;;
23046;SDS011;11691;51.462;6.902;2023-04-16T05:36:43;44.23;;;20.57;;
23046;SDS011;11691;51.462;6.902;2023-04-16T05:39:10;39.90;;;21.37;;
23046;SDS011;11691;51.462;6.902;2023-04-16T05:41:36;47.95;;;23.38;;
23046;SDS011;11691;51.462;6.902;2023-04-16T05:44:02;42.77;;;21.03;;
23046;SDS011;11691;51.462;6.902;2023-04-16T05:46:28;41.00;;;20.42;;
23046;SDS011;11691;51.462;6.902;2023-04-16T05:48:54;42.57;;;20.87;;
23046;SDS011;11691;51.462;6.902;2023-04-16T05:51:20;44.13;;;20.93;;
23046;SDS011;11691;51.462;6.902;2023-04-16T05:53:48;42.97;;;20.83;;
23046;SDS011;11691;51.462;6.902;2023-04-16T05:56:14;43.43;;;22.23;;
23046;SDS011;11691;51.462;6.902;2023-04-16T05:58:40;43.25;;;21.73;;
23046;SDS011;11691;51.462;6.902;2023-04-16T06:01:06;44.00;;;21.13;;
23046;SDS011;11691;51.462;6.902;2023-04-16T06:03:32;44.58;;;21.25;;
23046;SDS011;11691;51.462;6.902;2023-04-16T06:05:58;39.33;;;20.17;;
23046;SDS011;11691;51.462;6.902;2023-04-16T06:08:24;39.73;;;19.40;;
23046;SDS011;11691;51.462;6.902;2023-04-16T06:10:50;39.33;;;19.63;;
23046;SDS011;11691;51.462;6.902;2023-04-16T06:13:16;34.97;;;18.08;;
23046;SDS011;11691;51.462;6.902;2023-04-16T06:15:42;34.33;;;18.47;;
23046;SDS011;11691;51.462;6.902;2023-04-16T06:18:08;36.78;;;18.20;;
23046;SDS011;11691;51.462;6.902;2023-04-16T06:20:34;32.13;;;17.25;;
23046;SDS011;11691;51.462;6.902;2023-04-16T06:23:00;34.70;;;18.75;;
23046;SDS011;11691;51.462;6.902;2023-04-16T06:25:26;37.85;;;18.50;;
23046;SDS011;11691;51.462;6.902;2023-04-16T06:27:52;34.83;;;18.20;;
23046;SDS011;11691;51.462;6.902;2023-04-16T06:30:18;29.97;;;17.83;;
23046;SDS011;11691;51.462;6.902;2023-04-16T06:32:44;36.60;;;18.33;;
23046;SDS011;11691;51.462;6.902;2023-04-16T06:35:11;32.03;;;17.52;;
23046;SDS011;11691;51.462;6.902;2023-04-16T06:37:37;36.73;;;18.77;;
23046;SDS011;11691;51.462;6.902;2023-04-16T06:40:03;32.78;;;18.17;;
23046;SDS011;11691;51.462;6.902;2023-04-16T06:42:29;34.50;;;18.27;;
23046;SDS011;11691;51.462;6.902;2023-04-16T06:44:55;38.90;;;19.35;;
23046;SDS011;11691;51.462;6.902;2023-04-16T06:47:21;36.10;;;18.60;;
23046;SDS011;11691;51.462;6.902;2023-04-16T06:49:47;35.83;;;19.08;;
23046;SDS011;11691;51.462;6.902;2023-04-16T06:52:13;31.83;;;17.70;;
23046;SDS011;11691;51.462;6.902;2023-04-16T06:54:39;35.13;;;17.60;;
23046;SDS011;11691;51.462;6.902;2023-04-16T06:57:05;35.50;;;19.17;;
23046;SDS011;11691;51.462;6.902;2023-04-16T06:59:31;41.90;;;18.70;;
23046;SDS011;11691;51.462;6.902;2023-04-16T07:01:57;36.85;;;19.15;;
23046;SDS011;11691;51.462;6.902;2023-04-16T07:04:23;37.57;;;18.67;;
23046;SDS011;11691;51.462;6.902;2023-04-16T07:06:49;34.50;;;18.27;;
23046;SDS011;11691;51.462;6.902;2023-04-16T07:09:15;33.70;;;18.13;;
23046;SDS011;11691;51.462;6.902;2023-04-16T07:11:42;33.13;;;17.63;;
23046;SDS011;11691;51.462;6.902;2023-04-16T07:14:08;33.42;;;18.38;;
23046;SDS011;11691;51.462;6.902;2023-04-16T07:16:34;31.50;;;17.27;;
23046;SDS011;11691;51.462;6.902;2023-04-16T07:19:01;31.20;;;18.20;;
23046;SDS011;11691;51.462;6.902;2023-04-16T07:21:27;30.33;;;17.67;;
23046;SDS011;11691;51.462;6.902;2023-04-16T07:23:53;38.30;;;18.27;;
23046;SDS011;11691;51.462;6.902;2023-04-16T07:26:19;32.38;;;18.13;;
23046;SDS011;11691;51.462;6.902;2023-04-16T07:28:45;34.70;;;18.60;;
23046;SDS011;11691;51.462;6.902;2023-04-16T07:31:10;34.47;;;18.85;;
23046;SDS011;11691;51.462;6.902;2023-04-16T07:33:36;32.13;;;18.65;;
23046;SDS011;11691;51.462;6.902;2023-04-16T07:36:02;35.30;;;18.77;;
23046;SDS011;11691;51.462;6.902;2023-04-16T07:38:28;35.38;;;18.80;;
23046;SDS011;11691;51.462;6.902;2023-04-16T07:40:54;33.25;;;18.42;;
23046;SDS011;11691;51.462;6.902;2023-04-16T07:43:20;27.48;;;17.10;;
23046;SDS011;11691;51.462;6.902;2023-04-16T07:45:46;31.33;;;17.67;;
23046;SDS011;11691;51.462;6.902;2023-04-16T07:48:12;33.95;;;19.00;;
23046;SDS011;11691;51.462;6.902;2023-04-16T07:50:38;32.83;;;18.77;;
23046;SDS011;11691;51.462;6.902;2023-04-16T07:53:07;32.22;;;18.33;;
23046;SDS011;11691;51.462;6.902;2023-04-16T07:55:33;32.42;;;18.02;;
23046;SDS011;11691;51.462;6.902;2023-04-16T07:57:59;33.88;;;18.27;;
23046;SDS011;11691;51.462;6.902;2023-04-16T08:00:26;33.28;;;18.63;;
23046;SDS011;11691;51.462;6.902;2023-04-16T08:02:52;35.65;;;17.92;;
23046;SDS011;11691;51.462;6.902;2023-04-16T08:05:19;32.45;;;18.40;;
23046;SDS011;11691;51.462;6.902;2023-04-16T08:07:45;29.92;;;17.40;;
23046;SDS011;11691;51.462;6.902;2023-04-16T08:10:11;29.27;;;16.15;;
23046;SDS011;11691;51.462;6.902;2023-04-16T08:12:37;33.40;;;18.20;;
23046;SDS011;11691;51.462;6.902;2023-04-16T08:15:03;33.75;;;18.58;;
23046;SDS011;11691;51.462;6.902;2023-04-16T08:17:30;31.58;;;19.77;;
23046;SDS011;11691;51.462;6.902;2023-04-16T08:19:58;35.42;;;20.63;;
23046;SDS011;11691;51.462;6.902;2023-04-16T08:22:23;30.20;;;17.63;;
23046;SDS011;11691;51.462;6.902;2023-04-16T08:24:50;32.05;;;17.98;;
23046;SDS011;11691;51.462;6.902;2023-04-16T08:27:16;28.38;;;16.83;;
23046;SDS011;11691;51.462;6.902;2023-04-16T08:29:42;27.63;;;15.95;;
23046;SDS011;11691;51.462;6.902;2023-04-16T08:32:07;30.98;;;18.35;;
23046;SDS011;11691;51.462;6.902;2023-04-16T08:34:34;26.60;;;16.85;;
23046;SDS011;11691;51.462;6.902;2023-04-16T08:37:01;27.15;;;16.35;;
23046;SDS011;11691;51.462;6.902;2023-04-16T08:39:26;27.02;;;16.15;;
23046;SDS011;11691;51.462;6.902;2023-04-16T08:41:52;23.65;;;15.50;;
23046;SDS011;11691;51.462;6.902;2023-04-16T08:44:20;28.63;;;16.30;;
23046;SDS011;11691;51.462;6.902;2023-04-16T08:46:46;27.02;;;15.63;;
23046;SDS011;11691;51.462;6.902;2023-04-16T08:49:16;23.38;;;15.88;;
23046;SDS011;11691;51.462;6.902;2023-04-16T08:51:42;28.38;;;16.05;;
23046;SDS011;11691;51.462;6.902;2023-04-16T08:54:11;26.88;;;15.75;;
23046;SDS011;11691;51.462;6.902;2023-04-16T08:56:43;22.90;;;15.05;;
23046;SDS011;11691;51.462;6.902;2023-04-16T08:59:09;25.05;;;15.25;;
23046;SDS011;11691;51.462;6.902;2023-04-16T09:01:35;24.48;;;15.40;;
23046;SDS011;11691;51.462;6.902;2023-04-16T09:04:03;27.38;;;17.05;;
23046;SDS011;11691;51.462;6.902;2023-04-16T09:06:30;21.02;;;15.02;;
23046;SDS011;11691;51.462;6.902;2023-04-16T09:08:58;23.77;;;15.25;;
23046;SDS011;11691;51.462;6.902;2023-04-16T09:11:24;26.52;;;16.25;;
23046;SDS011;11691;51.462;6.902;2023-04-16T09:13:50;25.33;;;15.60;;
23046;SDS011;11691;51.462;6.902;2023-04-16T09:16:17;23.27;;;14.88;;
23046;SDS011;11691;51.462;6.902;2023-04-16T09:18:43;27.25;;;15.77;;
23046;SDS011;11691;51.462;6.902;2023-04-16T09:21:11;29.20;;;16.33;;
23046;SDS011;11691;51.462;6.902;2023-04-16T09:23:37;27.30;;;16.08;;
23046;SDS011;11691;51.462;6.902;2023-04-16T09:26:04;24.80;;;14.88;;
23046;SDS011;11691;51.462;6.902;2023-04-16T09:28:45;23.48;;;14.90;;
23046;SDS011;11691;51.462;6.902;2023-04-16T09:31:13;24.30;;;15.07;;
23046;SDS011;11691;51.462;6.902;2023-04-16T09:33:39;21.30;;;14.40;;
23046;SDS011;11691;51.462;6.902;2023-04-16T09:36:06;21.80;;;14.88;;
23046;SDS011;11691;51.462;6.902;2023-04-16T09:38:45;23.13;;;14.90;;
23046;SDS011;11691;51.462;6.902;2023-04-16T09:41:13;22.02;;;14.48;;
23046;SDS011;11691;51.462;6.902;2023-04-16T09:46:22;19.63;;;13.63;;
23046;SDS011;11691;51.462;6.902;2023-04-16T09:48:48;20.45;;;14.40;;
23046;SDS011;11691;51.462;6.902;2023-04-16T09:51:14;22.10;;;14.82;;
23046;SDS011;11691;51.462;6.902;2023-04-16T09:53:40;19.92;;;13.90;;
23046;SDS011;11691;51.462;6.902;2023-04-16T09:56:07;21.95;;;14.15;;
23046;SDS011;11691;51.462;6.902;2023-04-16T09:58:34;21.00;;;14.30;;
23046;SDS011;11691;51.462;6.902;2023-04-16T10:01:02;21.10;;;13.48;;
23046;SDS011;11691;51.462;6.902;2023-04-16T10:03:32;18.83;;;12.60;;
23046;SDS011;11691;51.462;6.902;2023-04-16T10:06:16;18.50;;;12.95;;
23046;SDS011;11691;51.462;6.902;2023-04-16T10:08:49;21.10;;;13.75;;
23046;SDS011;11691;51.462;6.902;2023-04-16T10:11:16;18.85;;;13.15;;
23046;SDS011;11691;51.462;6.902;2023-04-16T10:13:42;19.95;;;13.32;;
23046;SDS011;11691;51.462;6.902;2023-04-16T10:16:09;19.05;;;13.25;;
23046;SDS011;11691;51.462;6.902;2023-04-16T10:18:35;17.48;;;12.82;;
23046;SDS011;11691;51.462;6.902;2023-04-16T10:21:02;20.40;;;12.95;;
23046;SDS011;11691;51.462;6.902;2023-04-16T10:23:28;22.23;;;13.73;;
23046;SDS011;11691;51.462;6.902;2023-04-16T10:25:55;16.75;;;12.20;;
23046;SDS011;11691;51.462;6.902;2023-04-16T10:28:22;21.45;;;13.18;;
23046;SDS011;11691;51.462;6.902;2023-04-16T10:30:49;18.50;;;12.57;;
23046;SDS011;11691;51.462;6.902;2023-04-16T10:33:26;17.40;;;12.10;;
23046;SDS011;11691;51.462;6.902;2023-04-16T10:36:10;17.35;;;12.68;;
23046;SDS011;11691;51.462;6.902;2023-04-16T10:38:46;16.50;;;11.93;;
23046;SDS011;11691;51.462;6.902;2023-04-16T10:41:14;16.48;;;12.07;;
23046;SDS011;11691;51.462;6.902;2023-04-16T10:43:47;17.65;;;12.93;;
23046;SDS011;11691;51.462;6.902;2023-04-16T10:46:33;16.35;;;11.75;;
23046;SDS011;11691;51.462;6.902;2023-04-16T10:49:11;20.20;;;11.73;;
23046;SDS011;11691;51.462;6.902;2023-04-16T10:51:53;16.15;;;11.32;;
23046;SDS011;11691;51.462;6.902;2023-04-16T10:54:21;16.25;;;11.15;;
23046;SDS011;11691;51.462;6.902;2023-04-16T10:56:51;18.40;;;12.93;;
23046;SDS011;11691;51.462;6.902;2023-04-16T10:59:20;16.92;;;11.65;;
23046;SDS011;11691;51.462;6.902;2023-04-16T11:01:49;16.80;;;11.80;;
23046;SDS011;11691;51.462;6.902;2023-04-16T11:07:03;15.75;;;11.82;;
23046;SDS011;11691;51.462;6.902;2023-04-16T11:12:22;15.07;;;11.38;;
23046;SDS011;11691;51.462;6.902;2023-04-16T11:14:52;15.05;;;11.63;;
23046;SDS011;11691;51.462;6.902;2023-04-16T11:17:39;17.85;;;11.80;;
23046;SDS011;11691;51.462;6.902;2023-04-16T11:20:06;17.35;;;12.45;;
23046;SDS011;11691;51.462;6.902;2023-04-16T11:22:54;19.83;;;12.63;;
23046;SDS011;11691;51.462;6.902;2023-04-16T11:25:27;15.38;;;11.68;;
23046;SDS011;11691;51.462;6.902;2023-04-16T11:27:54;16.85;;;10.95;;
23046;SDS011;11691;51.462;6.902;2023-04-16T11:30:28;15.90;;;10.57;;
23046;SDS011;11691;51.462;6.902;2023-04-16T11:32:59;16.25;;;11.38;;
23046;SDS011;11691;51.462;6.902;2023-04-16T11:35:27;16.95;;;11.13;;
23046;SDS011;11691;51.462;6.902;2023-04-16T11:37:56;15.50;;;11.75;;
23046;SDS011;11691;51.462;6.902;2023-04-16T11:40:22;14.60;;;10.85;;
23046;SDS011;11691;51.462;6.902;2023-04-16T11:42:49;17.35;;;11.00;;
23046;SDS011;11691;51.462;6.902;2023-04-16T11:45:15;14.73;;;10.68;;
23046;SDS011;11691;51.462;6.902;2023-04-16T11:50:24;16.92;;;11.45;;
23046;SDS011;11691;51.462;6.902;2023-04-16T11:52:52;16.10;;;11.60;;
23046;SDS011;11691;51.462;6.902;2023-04-16T11:55:18;15.50;;;11.35;;
23046;SDS011;11691;51.462;6.902;2023-04-16T11:57:44;15.95;;;11.25;;
23046;SDS011;11691;51.462;6.902;2023-04-16T12:00:10;15.80;;;10.75;;
23046;SDS011;11691;51.462;6.902;2023-04-16T12:02:42;14.15;;;10.88;;
23046;SDS011;11691;51.462;6.902;2023-04-16T12:05:25;13.63;;;10.48;;
23046;SDS011;11691;51.462;6.902;2023-04-16T12:08:02;15.88;;;10.93;;
23046;SDS011;11691;51.462;6.902;2023-04-16T12:10:29;15.38;;;10.93;;
23046;SDS011;11691;51.462;6.902;2023-04-16T12:13:08;13.10;;;10.02;;
23046;SDS011;11691;51.462;6.902;2023-04-16T12:15:44;17.20;;;10.82;;
23046;SDS011;11691;51.462;6.902;2023-04-16T12:18:11;13.25;;;10.32;;
23046;SDS011;11691;51.462;6.902;2023-04-16T12:20:38;14.70;;;10.73;;
23046;SDS011;11691;51.462;6.902;2023-04-16T12:23:05;13.25;;;10.27;;
23046;SDS011;11691;51.462;6.902;2023-04-16T12:25:32;15.23;;;10.30;;
23046;SDS011;11691;51.462;6.902;2023-04-16T12:27:59;15.18;;;10.60;;
23046;SDS011;11691;51.462;6.902;2023-04-16T12:30:26;13.93;;;10.48;;
23046;SDS011;11691;51.462;6.902;2023-04-16T12:32:52;13.10;;;11.20;;
23046;SDS011;11691;51.462;6.902;2023-04-16T12:35:31;12.45;;;9.82;;
23046;SDS011;11691;51.462;6.902;2023-04-16T12:37:58;16.35;;;10.38;;
23046;SDS011;11691;51.462;6.902;2023-04-16T12:40:24;15.55;;;10.77;;
23046;SDS011;11691;51.462;6.902;2023-04-16T12:42:50;15.15;;;11.02;;
23046;SDS011;11691;51.462;6.902;2023-04-16T12:45:16;14.65;;;10.60;;
23046;SDS011;11691;51.462;6.902;2023-04-16T12:47:42;16.05;;;10.82;;
23046;SDS011;11691;51.462;6.902;2023-04-16T12:50:08;17.95;;;11.27;;
23046;SDS011;11691;51.462;6.902;2023-04-16T12:52:34;15.32;;;11.68;;
23046;SDS011;11691;51.462;6.902;2023-04-16T12:55:00;15.23;;;11.23;;
23046;SDS011;11691;51.462;6.902;2023-04-16T12:57:27;14.38;;;10.77;;
23046;SDS011;11691;51.462;6.902;2023-04-16T12:59:56;17.60;;;11.48;;
23046;SDS011;11691;51.462;6.902;2023-04-16T13:02:22;19.27;;;12.40;;
23046;SDS011;11691;51.462;6.902;2023-04-16T13:04:49;18.92;;;12.23;;
23046;SDS011;11691;51.462;6.902;2023-04-16T13:07:15;17.40;;;12.70;;
23046;SDS011;11691;51.462;6.902;2023-04-16T13:09:41;17.67;;;12.02;;
23046;SDS011;11691;51.462;6.902;2023-04-16T13:12:07;15.60;;;12.57;;
23046;SDS011;11691;51.462;6.902;2023-04-16T13:14:33;20.20;;;11.77;;
23046;SDS011;11691;51.462;6.902;2023-04-16T13:16:59;17.92;;;12.88;;
23046;SDS011;11691;51.462;6.902;2023-04-16T13:19:25;20.02;;;13.05;;
23046;SDS011;11691;51.462;6.902;2023-04-16T13:21:51;18.85;;;13.38;;
23046;SDS011;11691;51.462;6.902;2023-04-16T13:24:17;18.13;;;13.32;;
23046;SDS011;11691;51.462;6.902;2023-04-16T13:26:43;17.95;;;13.00;;
23046;SDS011;11691;51.462;6.902;2023-04-16T13:29:09;18.88;;;12.55;;
23046;SDS011;11691;51.462;6.902;2023-04-16T13:31:35;16.17;;;11.88;;
23046;SDS011;11691;51.462;6.902;2023-04-16T13:34:02;16.98;;;12.73;;
23046;SDS011;11691;51.462;6.902;2023-04-16T13:36:28;18.63;;;12.23;;
23046;SDS011;11691;51.462;6.902;2023-04-16T13:38:56;20.85;;;12.52;;
23046;SDS011;11691;51.462;6.902;2023-04-16T13:43:50;18.42;;;12.48;;
23046;SDS011;11691;51.462;6.902;2023-04-16T13:46:16;17.60;;;12.32;;
23046;SDS011;11691;51.462;6.902;2023-04-16T13:48:43;18.00;;;12.32;;
23046;SDS011;11691;51.462;6.902;2023-04-16T13:51:10;20.77;;;12.60;;
23046;SDS011;11691;51.462;6.902;2023-04-16T13:53:36;19.20;;;12.73;;
23046;SDS011;11691;51.462;6.902;2023-04-16T13:56:02;17.45;;;12.02;;
23046;SDS011;11691;51.462;6.902;2023-04-16T13:58:28;20.13;;;12.20;;
23046;SDS011;11691;51.462;6.902;2023-04-16T14:00:53;18.05;;;12.38;;
23046;SDS011;11691;51.462;6.902;2023-04-16T14:03:19;16.98;;;11.55;;
23046;SDS011;11691;51.462;6.902;2023-04-16T14:05:45;18.55;;;11.93;;
23046;SDS011;11691;51.462;6.902;2023-04-16T14:08:12;15.80;;;11.38;;
23046;SDS011;11691;51.462;6.902;2023-04-16T14:10:40;17.38;;;11.52;;
23046;SDS011;11691;51.462;6.902;2023-04-16T14:13:06;14.77;;;11.20;;
23046;SDS011;11691;51.462;6.902;2023-04-16T14:15:32;15.45;;;10.82;;
23046;SDS011;11691;51.462;6.902;2023-04-16T14:17:58;15.93;;;11.18;;
23046;SDS011;11691;51.462;6.902;2023-04-16T14:20:25;15.02;;;10.10;;
23046;SDS011;11691;51.462;6.902;2023-04-16T14:22:51;18.65;;;10.75;;
23046;SDS011;11691;51.462;6.902;2023-04-16T14:25:17;17.20;;;10.35;;
23046;SDS011;11691;51.462;6.902;2023-04-16T14:27:43;14.95;;;10.60;;
23046;SDS011;11691;51.462;6.902;2023-04-16T14:30:09;15.27;;;11.07;;
23046;SDS011;11691;51.462;6.902;2023-04-16T14:32:35;14.15;;;10.23;;
23046;SDS011;11691;51.462;6.902;2023-04-16T14:35:01;14.82;;;10.40;;